Flight Track Log - Related Links

Times and Time Zones

All times are in EDT time to prevent confusion due to time zone crossing. See the VRD236 flight status page for this flight to view local times or setup timezone preferences in your user account.

Time Position Orientation Groundspeed Altitude Reporting Facility
EDT Latitude Longitude Course Direction KTS MPH feet Rate Location/Type
Fri 08:14:22 PM 33.9470 -118.4290 262° West 154 177 400  Level FlightAware ADS-B
Fri 08:14:57 PM 33.9440 -118.4620 264° West 169 194 1,600 1,714 Climbing FlightAware ADS-B
Fri 08:15:18 PM 33.9420 -118.4830 263° West 197 227 2,000 941 Climbing FlightAware ADS-B
Fri 08:15:48 PM 33.9390 -118.5240 265° West 256 295 2,400 1,831 Climbing FlightAware ADS-B
Fri 08:16:17 PM 33.9350 -118.5640 263° West 262 302 3,800 2,847 Climbing FlightAware ADS-B
Fri 08:16:47 PM 33.9230 -118.6070 251° West 271 312 5,200 2,850 Climbing FlightAware ADS-B
Fri 08:16:57 PM 33.9140 -118.6160 220° Southwest 273 314 5,700 2,880 Climbing FlightAware ADS-B
Fri 08:17:12 PM 33.8940 -118.6250 200° South 274 315 6,400 2,710 Climbing FlightAware ADS-B
Fri 08:17:28 PM 33.8750 -118.6220 173° South 280 322 7,100 3,000 Climbing FlightAware ADS-B
Fri 08:17:42 PM 33.8570 -118.6130 157° South 281 323 7,900 2,291 Climbing FlightAware ADS-B
Fri 08:18:23 PM 33.8320 -118.5650 122° Southeast 305 351 9,200 2,057 Climbing FlightAware ADS-B
Fri 08:18:52 PM 33.8520 -118.5170 63° Northeast 317 365 10,300 1,543 Climbing FlightAware ADS-B
Fri 08:19:33 PM 33.8940 -118.4600 48° Northeast 362 417 11,000 1,535 Climbing FlightAware ADS-B
Fri 08:20:18 PM 33.9460 -118.3870 49° Northeast 380 437 12,500 1,478 Climbing FlightAware ADS-B
Fri 08:21:51 PM 34.0020 -118.3090 49° Northeast 387 445 14,400 2,211 Climbing FlightAware ADS-B
Fri 08:22:31 PM 34.1120 -118.1440 51° Northeast 413 475 17,400 3,214 Climbing FlightAware ADS-B
Fri 08:23:15 PM 34.1670 -118.0630 51° Northeast 418 481 18,900 1,929 Climbing FlightAware ADS-B
Fri 08:23:55 PM 34.2160 -117.9920 50° Northeast 426 490 20,100 2,241 Climbing FlightAware ADS-B
Fri 08:24:38 PM 34.2660 -117.9190 50° Northeast 412 474 22,000 2,231 Climbing FlightAware ADS-B
Fri 08:25:13 PM 34.3110 -117.8530 50° Northeast 417 480 23,000 1,553 Climbing FlightAware ADS-B
Fri 08:26:03 PM 34.3740 -117.7600 51° Northeast 428 493 24,200 1,484 Climbing FlightAware ADS-B
Fri 08:26:46 PM 34.4280 -117.6810 50° Northeast 437 503 25,300 1,518 Climbing FlightAware ADS-B
Fri 08:27:26 PM 34.4800 -117.6040 51° Northeast 442 509 26,300 1,275 Climbing FlightAware ADS-B
Fri 08:28:06 PM 34.5330 -117.5260 50° Northeast 454 522 27,000 1,000 Climbing FlightAware ADS-B
Fri 08:28:50 PM 34.5910 -117.4400 51° Northeast 464 534 27,700 857 Climbing FlightAware ADS-B
Fri 08:29:30 PM 34.6480 -117.3550 51° Northeast 476 548 28,200 900 Climbing FlightAware ADS-B
Fri 08:30:10 PM 34.7030 -117.2730 51° Northeast 483 556 28,900 1,023 Climbing FlightAware ADS-B
Fri 08:30:58 PM 34.7680 -117.1770 50° Northeast 486 559 29,700 1,079 Climbing FlightAware ADS-B
Fri 08:31:39 PM 34.8300 -117.0840 51° Northeast 491 565 30,500 1,200 Climbing FlightAware ADS-B
Fri 08:32:23 PM 34.8920 -116.9910 51° Northeast 487 560 31,400 1,214 Climbing FlightAware ADS-B
Fri 08:33:03 PM 34.9500 -116.9040 51° Northeast 486 559 32,200 800 Climbing FlightAware ADS-B
Fri 08:33:53 PM 35.0130 -116.8090 51° Northeast 487 560 32,600 1,200 Climbing FlightAware ADS-B
Fri 08:34:43 PM 35.0910 -116.6910 51° Northeast 480 552 34,200 1,370 Climbing FlightAware ADS-B
Fri 08:35:25 PM 35.1500 -116.6010 51° Northeast 483 556 34,700 878 Climbing FlightAware ADS-B
Fri 08:36:05 PM 35.2060 -116.5170 51° Northeast 478 550 35,400 900 Climbing FlightAware ADS-B
Fri 08:36:45 PM 35.2600 -116.4350 51° Northeast 478 550 35,900 786 Climbing FlightAware ADS-B
Fri 08:37:29 PM 35.3220 -116.3400 51° Northeast 476 548 36,500 667 Climbing FlightAware ADS-B
Fri 08:38:06 PM 35.3710 -116.2640 52° Northeast 478 550 36,800 361 Climbing FlightAware ADS-B
Fri 08:38:52 PM 35.4350 -116.1650 52° Northeast 478 550 37,000 130 Climbing FlightAware ADS-B
Fri 08:39:38 PM 35.4890 -116.0620 57° Northeast 480 552 37,000  Level FlightAware ADS-B
Fri 08:40:58 PM 35.5600 -115.9060 61° Northeast 484 557 37,000 48 Level FlightAware ADS-B
Fri 08:41:44 PM 35.6270 -115.7600 61° Northeast 485 558 37,100  Climbing FlightAware ADS-B
Fri 08:42:24 PM 35.6700 -115.6650 61° Northeast 485 558 37,000 -74 Descending FlightAware ADS-B
Fri 08:43:05 PM 35.7160 -115.5640 61° Northeast 485 558 37,000 70 Level FlightAware ADS-B
Fri 08:43:50 PM 35.7650 -115.4560 61° Northeast 483 556 37,100  Climbing FlightAware ADS-B
Fri 08:44:32 PM 35.8110 -115.3540 61° Northeast 482 555 37,000 -79 Descending FlightAware ADS-B
Fri 08:45:06 PM 35.8480 -115.2740 60° Northeast 481 554 37,000  Level FlightAware ADS-B
Fri 08:45:54 PM 35.8990 -115.1600 61° Northeast 480 552 37,000  Level FlightAware ADS-B
Fri 08:46:36 PM 35.9430 -115.0610 61° Northeast 480 552 37,000  Level FlightAware ADS-B
Fri 08:47:18 PM 35.9890 -114.9590 61° Northeast 481 554 37,000  Level FlightAware ADS-B
Fri 08:48:02 PM 36.0360 -114.8540 61° Northeast 481 554 37,000  Level FlightAware ADS-B
Fri 08:48:42 PM 36.0790 -114.7560 61° Northeast 483 556 37,000  Level FlightAware ADS-B
Fri 08:49:24 PM 36.1230 -114.6570 61° Northeast 484 557 37,000  Level FlightAware ADS-B
Fri 08:50:08 PM 36.1710 -114.5500 61° Northeast 484 557 37,000  Level FlightAware ADS-B
Fri 08:50:48 PM 36.2130 -114.4520 62° Northeast 484 557 37,000  Level FlightAware ADS-B
Fri 08:51:32 PM 36.2610 -114.3430 61° Northeast 484 557 37,000  Level FlightAware ADS-B
Fri 08:52:12 PM 36.3030 -114.2480 61° Northeast 481 554 37,000  Level FlightAware ADS-B
Fri 08:52:52 PM 36.3460 -114.1490 62° Northeast 482 555 37,000  Level FlightAware ADS-B
Fri 08:53:38 PM 36.3930 -114.0410 62° Northeast 482 555 37,000  Level FlightAware ADS-B
Fri 08:54:18 PM 36.4360 -113.9410 62° Northeast 482 555 37,000  Level FlightAware ADS-B
Fri 08:55:02 PM 36.4830 -113.8340 61° Northeast 483 556 37,000  Level FlightAware ADS-B
Fri 08:55:42 PM 36.5240 -113.7390 62° Northeast 483 556 37,000  Level FlightAware ADS-B
Fri 08:56:26 PM 36.5690 -113.6340 62° Northeast 483 556 37,000  Level FlightAware ADS-B
Fri 08:57:06 PM 36.6120 -113.5320 62° Northeast 483 556 37,000  Level FlightAware ADS-B
Fri 08:57:50 PM 36.6580 -113.4250 62° Northeast 484 557 37,000  Level FlightAware ADS-B
Fri 08:58:30 PM 36.7000 -113.3260 62° Northeast 484 557 37,000  Level FlightAware ADS-B
Fri 08:59:12 PM 36.7450 -113.2190 62° Northeast 484 557 37,000  Level FlightAware ADS-B
Fri 08:59:55 PM 36.7910 -113.1120 62° Northeast 483 556 37,000  Level FlightAware ADS-B
Fri 09:00:36 PM 36.8310 -113.0170 62° Northeast 483 556 37,000  Level FlightAware ADS-B
Fri 09:01:17 PM 36.8750 -112.9120 62° Northeast 486 559 37,000  Level FlightAware ADS-B
Fri 09:02:01 PM 36.9200 -112.8050 62° Northeast 485 558 37,000  Level FlightAware ADS-B
Fri 09:02:45 PM 36.9670 -112.6910 63° Northeast 483 556 37,000  Level FlightAware ADS-B
Fri 09:03:25 PM 37.0090 -112.5920 62° Northeast 483 556 37,000  Level FlightAware ADS-B
Fri 09:04:07 PM 37.0520 -112.4870 63° Northeast 482 555 37,000  Level FlightAware ADS-B
Fri 09:04:49 PM 37.0940 -112.3860 62° Northeast 481 554 37,000  Level FlightAware ADS-B
Fri 09:05:29 PM 37.1350 -112.2850 63° Northeast 480 552 37,000  Level FlightAware ADS-B
Fri 09:06:15 PM 37.1830 -112.1700 62° Northeast 483 556 37,000  Level FlightAware ADS-B
Fri 09:07:02 PM 37.2260 -112.0660 63° Northeast 483 556 37,000  Level FlightAware ADS-B
Fri 09:07:50 PM 37.2690 -111.9650 62° Northeast 483 556 37,000  Level FlightAware ADS-B
Fri 09:08:27 PM 37.3020 -111.8870 62° Northeast 483 556 37,000  Level FlightAware ADS-B
Fri 09:09:16 PM 37.3450 -111.7830 62° Northeast 483 556 37,000  Level FlightAware ADS-B
Fri 09:09:52 PM 37.3780 -111.7070 61° Northeast 483 556 37,000  Level FlightAware ADS-B
Fri 09:10:46 PM 37.4260 -111.5930 62° Northeast 483 556 37,000  Level FlightAware ADS-B
Fri 09:11:32 PM 37.4670 -111.4960 62° Northeast 483 556 37,000  Level FlightAware ADS-B
Fri 09:12:20 PM 37.5090 -111.3950 62° Northeast 483 556 37,000  Level FlightAware ADS-B
Fri 09:12:56 PM 37.5420 -111.3190 61° Northeast 483 556 37,000  Level FlightAware ADS-B
Fri 09:13:44 PM 37.5840 -111.2170 63° Northeast 483 556 37,000  Level FlightAware ADS-B
Fri 09:14:20 PM 37.6160 -111.1410 62° Northeast 483 556 37,000  Level FlightAware ADS-B
Fri 09:15:08 PM 37.6590 -111.0390 62° Northeast 483 556 37,000  Level FlightAware ADS-B
Fri 09:15:43 PM 37.6900 -110.9650 62° Northeast 483 556 37,000  Level FlightAware ADS-B
Fri 09:16:32 PM 37.7340 -110.8610 62° Northeast 483 556 37,000  Level FlightAware ADS-B
Fri 09:17:22 PM 37.8411 -110.5183 62° Northeast 478 550 37,000  Level Denver Center
Fri 09:18:24 PM 37.8969 -110.3747 64° Northeast 476 548 37,000  Level Denver Center
Fri 09:19:26 PM 37.9619 -110.2069 64° Northeast 474 545 37,000  Level Denver Center
Fri 09:20:28 PM 38.0244 -110.0467 64° Northeast 475 547 37,000  Level Denver Center
Fri 09:21:30 PM 38.0892 -109.9142 58° Northeast 478 550 37,000  Level Denver Center
Fri 09:22:32 PM 38.1825 -109.7697 51° Northeast 474 545 37,000  Level Denver Center
Fri 09:23:34 PM 38.2625 -109.6464 50° Northeast 472 543 37,000  Level Denver Center
Fri 09:24:36 PM 38.3558 -109.5006 51° Northeast 477 549 37,000  Level Denver Center
Fri 09:25:38 PM 38.4347 -109.3742 51° Northeast 476 548 37,000  Level Denver Center
Fri 09:26:40 PM 38.5292 -109.2300 50° Northeast 475 547 37,000  Level Denver Center
Fri 09:32:34 PM 39.0190 -108.4580 50° Northeast 478 550 37,000  Level FlightAware ADS-B
Fri 09:33:14 PM 39.0770 -108.3650 51° Northeast 479 551 37,000  Level FlightAware ADS-B
Fri 09:34:00 PM 39.1380 -108.2670 51° Northeast 480 552 37,000  Level FlightAware ADS-B
Fri 09:34:39 PM 39.1940 -108.1770 51° Northeast 481 554 37,000  Level FlightAware ADS-B
Fri 09:35:24 PM 39.2550 -108.0780 51° Northeast 481 554 37,000  Level FlightAware ADS-B
Fri 09:36:06 PM 39.3110 -107.9870 51° Northeast 482 555 37,000  Level FlightAware ADS-B
Fri 09:36:45 PM 39.3700 -107.8920 51° Northeast 482 555 37,000 76 Level FlightAware ADS-B
Fri 09:37:25 PM 39.4210 -107.8080 52° Northeast 479 551 37,100  Climbing FlightAware ADS-B
Fri 09:38:10 PM 39.4780 -107.7150 52° Northeast 478 550 37,000 -67 Descending FlightAware ADS-B
Fri 09:38:54 PM 39.5440 -107.6070 52° Northeast 479 551 37,000  Level FlightAware ADS-B
Fri 09:39:39 PM 39.6090 -107.5000 52° Northeast 480 552 37,000  Level FlightAware ADS-B
Fri 09:40:20 PM 39.6640 -107.4100 52° Northeast 473 544 37,000  Level FlightAware ADS-B
Fri 09:40:27 PM 39.6751 -107.3910 53° Northeast 471 542 37,000  Level FlightAware ADS-B
Fri 09:40:58 PM 39.7153 -107.3240 52° Northeast 464 534 37,000  Level FlightAware ADS-B
Fri 09:41:29 PM 39.7560 -107.2570 52° Northeast 459 528 37,000  Level FlightAware ADS-B
Fri 09:41:59 PM 39.7962 -107.1900 52° Northeast 460 529 37,000  Level FlightAware ADS-B
Fri 09:42:29 PM 39.8343 -107.1260 52° Northeast 460 529 37,000  Level FlightAware ADS-B
Fri 09:43:01 PM 39.8758 -107.0570 52° Northeast 459 528 37,000  Level FlightAware ADS-B
Fri 09:43:32 PM 39.9166 -106.9890 52° Northeast 454 522 37,000  Level FlightAware ADS-B
Fri 09:44:09 PM 39.9633 -106.9100 52° Northeast 455 524 37,000 75 Level FlightAware ADS-B
Fri 09:44:52 PM 40.0195 -106.8160 52° Northeast 456 525 37,100 58 Climbing FlightAware ADS-B
Fri 09:45:52 PM 40.0970 -106.6850 52° Northeast 460 529 37,100 -60 Level FlightAware ADS-B
Fri 09:46:32 PM 40.1460 -106.6020 52° Northeast 462 532 37,000 -81 Descending FlightAware ADS-B
Fri 09:47:06 PM 40.1948 -106.5190 52° Northeast 464 534 37,000  Level FlightAware ADS-B
Fri 09:47:43 PM 40.2425 -106.4380 52° Northeast 464 534 37,000  Level FlightAware ADS-B
Fri 09:48:28 PM 40.3018 -106.3360 53° Northeast 465 535 37,000 64 Level FlightAware ADS-B
Fri 09:49:17 PM 40.3647 -106.2280 53° Northeast 465 535 37,100  Climbing FlightAware ADS-B
Fri 09:50:01 PM 40.4220 -106.1290 53° Northeast 463 533 37,000 -40 Descending FlightAware ADS-B
Fri 09:51:47 PM 40.5590 -105.8940 52° Northeast 466 536 37,000  Level FlightAware ADS-B
Fri 09:52:27 PM 40.6120 -105.8010 53° Northeast 469 540 37,000  Level FlightAware ADS-B
Fri 09:53:11 PM 40.6700 -105.7000 53° Northeast 468 539 37,000  Level FlightAware ADS-B
Fri 09:53:51 PM 40.7200 -105.6120 53° Northeast 467 537 37,000  Level FlightAware ADS-B
Fri 09:54:35 PM 40.7770 -105.5110 53° Northeast 466 536 37,000  Level FlightAware ADS-B
Fri 09:55:11 PM 40.8240 -105.4280 53° Northeast 466 536 37,000  Level FlightAware ADS-B
Fri 09:55:47 PM 40.8704 -105.3470 53° Northeast 465 535 37,000  Level FlightAware ADS-B
Fri 09:56:26 PM 40.9216 -105.2570 53° Northeast 466 536 37,000  Level FlightAware ADS-B
Fri 09:56:57 PM 40.9604 -105.1880 53° Northeast 466 536 37,000  Level FlightAware ADS-B
Fri 09:57:27 PM 40.9996 -105.1180 53° Northeast 465 535 37,000  Level FlightAware ADS-B
Fri 09:57:59 PM 41.0399 -105.0460 53° Northeast 465 535 37,000  Level FlightAware ADS-B
Fri 09:58:30 PM 41.0791 -104.9760 53° Northeast 465 535 37,000  Level FlightAware ADS-B
Fri 09:59:11 PM 41.1326 -104.8800 53° Northeast 463 533 37,000  Level FlightAware ADS-B
Fri 09:59:50 PM 41.1818 -104.7920 53° Northeast 465 535 37,000  Level FlightAware ADS-B
Fri 10:00:21 PM 41.2212 -104.7210 54° Northeast 463 533 37,000 98 Level FlightAware ADS-B
Fri 10:00:51 PM 41.2594 -104.6520 54° Northeast 461 531 37,100  Climbing FlightAware ADS-B
Fri 10:01:21 PM 41.2968 -104.5850 53° Northeast 458 527 37,000 -98 Descending FlightAware ADS-B
Fri 10:01:52 PM 41.3350 -104.5150 54° Northeast 457 526 37,000  Level FlightAware ADS-B
Fri 10:02:28 PM 41.3800 -104.4330 54° Northeast 456 525 37,000  Level FlightAware ADS-B
Fri 10:02:58 PM 41.4171 -104.3660 54° Northeast 455 524 37,000  Level FlightAware ADS-B
Fri 10:03:28 PM 41.4546 -104.2970 54° Northeast 457 526 37,000  Level FlightAware ADS-B
Fri 10:03:58 PM 41.4922 -104.2280 54° Northeast 460 529 37,000  Level FlightAware ADS-B
Fri 10:04:29 PM 41.5313 -104.1570 54° Northeast 463 533 37,000  Level FlightAware ADS-B
Fri 10:04:59 PM 41.5680 -104.0890 54° Northeast 466 536 37,000  Level FlightAware ADS-B
Fri 10:05:29 PM 41.6065 -104.0180 54° Northeast 468 539 37,000 98 Level FlightAware ADS-B
Fri 10:06:00 PM 41.6461 -103.9450 54° Northeast 471 542 37,100  Climbing FlightAware ADS-B
Fri 10:06:31 PM 41.6845 -103.8730 54° Northeast 471 542 37,000 -95 Descending FlightAware ADS-B
Fri 10:07:03 PM 41.7254 -103.7980 54° Northeast 472 543 37,000  Level FlightAware ADS-B
Fri 10:07:33 PM 41.7638 -103.7260 54° Northeast 472 543 37,000  Level FlightAware ADS-B
Fri 10:08:03 PM 41.8025 -103.6540 54° Northeast 471 542 37,000  Level FlightAware ADS-B
Fri 10:08:15 PM 41.8166 -103.6270 55° Northeast 471 542 37,000  Level FlightAware ADS-B
Fri 10:08:46 PM 41.8509 -103.5490 59° Northeast 471 542 37,000  Level FlightAware ADS-B
Fri 10:09:06 PM 41.8698 -103.4960 64° Northeast 471 542 37,000  Level FlightAware ADS-B
Fri 10:09:22 PM 41.8825 -103.4520 69° East 471 542 37,000  Level FlightAware ADS-B
Fri 10:09:43 PM 41.8958 -103.3970 72° East 471 542 37,000  Level FlightAware ADS-B
Fri 10:10:08 PM 41.9084 -103.3240 77° East 470 541 37,000  Level FlightAware ADS-B
Fri 10:10:39 PM 41.9175 -103.2360 82° East 468 539 37,000  Level FlightAware ADS-B
Fri 10:11:09 PM 41.9257 -103.1480 83° East 468 539 37,000  Level FlightAware ADS-B
Fri 10:11:40 PM 41.9340 -103.0590 83° East 467 537 37,000  Level FlightAware ADS-B
Fri 10:12:10 PM 41.9420 -102.9730 83° East 464 534 37,000  Level FlightAware ADS-B
Fri 10:12:40 PM 41.9499 -102.8870 83° East 460 529 37,000  Level FlightAware ADS-B
Fri 10:13:11 PM 41.9577 -102.8010 83° East 458 527 37,000  Level FlightAware ADS-B
Fri 10:13:41 PM 41.9654 -102.7150 83° East 457 526 37,000  Level FlightAware ADS-B
Fri 10:14:11 PM 41.9729 -102.6310 83° East 457 526 37,000  Level FlightAware ADS-B
Fri 10:14:41 PM 41.9803 -102.5470 83° East 456 525 37,000  Level FlightAware ADS-B
Fri 10:15:23 PM 41.9906 -102.4300 83° East 457 526 37,000  Level FlightAware ADS-B
Fri 10:16:14 PM 42.0030 -102.2860 83° East 460 529 37,000  Level FlightAware ADS-B
Fri 10:16:44 PM 42.0102 -102.2010 83° East 456 525 37,000  Level FlightAware ADS-B
Fri 10:17:17 PM 42.0181 -102.1070 84° East 456 525 37,000  Level FlightAware ADS-B
Fri 10:17:48 PM 42.0252 -102.0220 84° East 455 524 37,000  Level FlightAware ADS-B
Fri 10:18:21 PM 42.0329 -101.9280 84° East 454 522 37,000  Level FlightAware ADS-B
Fri 10:18:52 PM 42.0399 -101.8430 84° East 452 520 37,000  Level FlightAware ADS-B
Fri 10:19:30 PM 42.0484 -101.7380 84° East 449 517 37,000  Level FlightAware ADS-B
Fri 10:19:48 PM 42.0531 -101.6890 83° East 449 517 37,000  Level FlightAware ADS-B
Fri 10:20:19 PM 42.0649 -101.6030 80° East 449 517 37,000  Level FlightAware ADS-B
Fri 10:20:34 PM 42.0667 -101.5836 80° East 449 517 37,000  Level Minneapolis Center
Fri 10:21:25 PM 42.0992 -101.4314 74° East 453 521 37,000  Level Denver Center
Fri 10:22:26 PM 42.1339 -101.2767 73° East 451 519 37,000  Level Denver Center
Fri 10:23:28 PM 42.1708 -101.0944 75° East 452 520 37,000  Level Denver Center
Fri 10:24:30 PM 42.2000 -100.9661 73° East 449 517 37,000  Level Denver Center
Fri 10:25:32 PM 42.2444 -100.7850 72° East 452 520 37,000  Level Denver Center
Fri 10:26:34 PM 42.2889 -100.6022 72° East 457 526 37,000  Level Denver Center
Fri 10:27:35 PM 42.3086 -100.4392 81° East 460 529 37,000  Level Denver Center
Fri 10:28:43 PM 42.3183 -100.2425 86° East 454 522 37,000  Level Minneapolis Center
Fri 10:29:44 PM 42.3278 -100.0575 86° East 462 532 37,000 49 Level Minneapolis Center
Fri 10:30:45 PM 42.3367 -99.8808 86° East 466 536 37,100  Climbing Minneapolis Center
Fri 10:31:42 PM 42.3436 -99.7142 87° East 472 543 37,000  Descending Denver Center
Fri 10:32:44 PM 42.3522 -99.5275 86° East 468 539 37,100  Climbing Denver Center
Fri 10:33:46 PM 42.3600 -99.3544 86° East 463 533 37,000 -48 Descending Denver Center
Fri 10:34:48 PM 42.3672 -99.1803 87° East 463 533 37,000  Level Denver Center
Fri 10:35:49 PM 42.3750 -99.0053 86° East 464 534 37,000 49 Level Denver Center
Fri 10:36:51 PM 42.3806 -98.8294 87° East 466 536 37,100  Climbing Denver Center
Fri 10:37:53 PM 42.3883 -98.6567 86° East 464 534 37,000 -49 Descending Minneapolis Center
Fri 10:38:54 PM 42.3922 -98.5208 88° East 457 526 37,000  Level Minneapolis Center
Fri 10:39:55 PM 42.4000 -98.3172 87° East 451 519 37,000  Level Minneapolis Center
Fri 10:45:40 PM 42.4280 -97.3310 87° East 434 499 37,000  Level FlightAware ADS-B
Fri 10:46:24 PM 42.4310 -97.2110 88° East 433 498 37,000  Level FlightAware ADS-B
Fri 10:47:16 PM 42.4350 -97.0700 88° East 435 501 37,000  Level FlightAware ADS-B
Fri 10:48:00 PM 42.4370 -96.9540 89° East 437 503 37,000  Level FlightAware ADS-B
Fri 10:48:35 PM 42.4390 -96.8570 88° East 436 502 37,000  Level FlightAware ADS-B
Fri 10:49:24 PM 42.4420 -96.7230 88° East 436 502 37,000  Level FlightAware ADS-B
Fri 10:50:08 PM 42.4440 -96.6020 89° East 437 503 37,000  Level FlightAware ADS-B
Fri 10:50:48 PM 42.4460 -96.4920 89° East 438 504 37,000  Level FlightAware ADS-B
Fri 10:51:28 PM 42.4480 -96.3880 88° East 438 504 37,000  Level FlightAware ADS-B
Fri 10:52:13 PM 42.4510 -96.2760 88° East 438 504 37,000  Level FlightAware ADS-B
Fri 10:52:56 PM 42.4520 -96.1440 89° East 436 502 37,000  Level FlightAware ADS-B
Fri 10:53:38 PM 42.4530 -96.0300 89° East 437 503 37,000  Level FlightAware ADS-B
Fri 10:54:18 PM 42.4550 -95.9210 89° East 440 506 37,000  Level FlightAware ADS-B
Fri 10:54:53 PM 42.4560 -95.8350 89° East 441 507 37,000 61 Level FlightAware ADS-B
Fri 10:55:56 PM 42.4570 -95.7170 89° East 441 507 37,100  Climbing FlightAware ADS-B
Fri 10:56:40 PM 42.4590 -95.5310 89° East 437 503 37,000 -71 Descending FlightAware ADS-B
Fri 10:57:20 PM 42.4600 -95.4180 89° East 436 502 37,000  Level FlightAware ADS-B
Fri 10:58:01 PM 42.4610 -95.3110 89° East 436 502 37,000  Level FlightAware ADS-B
Fri 10:58:46 PM 42.4610 -95.1870 90° East 436 502 37,000  Level FlightAware ADS-B
Fri 10:59:26 PM 42.4620 -95.0790 89° East 437 503 37,000  Level FlightAware ADS-B
Fri 11:00:06 PM 42.4630 -94.9680 89° East 438 504 37,000  Level FlightAware ADS-B
Fri 11:00:58 PM 42.4630 -94.8250 90° East 440 506 37,000  Level FlightAware ADS-B
Fri 11:01:42 PM 42.4630 -94.7050 90° East 440 506 37,000  Level FlightAware ADS-B
Fri 11:02:26 PM 42.4640 -94.5840 89° East 442 509 37,000  Level FlightAware ADS-B
Fri 11:03:04 PM 42.4640 -94.4820 90° East 443 510 37,000  Level FlightAware ADS-B
Fri 11:03:48 PM 42.4640 -94.3550 90° East 444 511 37,000  Level FlightAware ADS-B
Fri 11:04:30 PM 42.4640 -94.2420 90° East 446 513 37,000  Level FlightAware ADS-B
Fri 11:05:14 PM 42.4630 -94.1170 91° East 447 514 37,000  Level FlightAware ADS-B
Fri 11:05:54 PM 42.4630 -94.0070 90° East 447 514 37,000 -220 Level FlightAware ADS-B
Fri 11:06:36 PM 42.4620 -93.8870 91° East 446 513 36,700 -628 Descending FlightAware ADS-B
Fri 11:07:20 PM 42.4610 -93.7690 91° East 446 513 36,100 -929 Descending FlightAware ADS-B
Fri 11:08:00 PM 42.4610 -93.6550 90° East 446 513 35,400 -776 Descending FlightAware ADS-B
Fri 11:08:45 PM 42.4600 -93.5320 91° East 447 514 35,000 -282 Descending FlightAware ADS-B
Fri 11:09:25 PM 42.4590 -93.4160 91° East 449 517 35,000  Level FlightAware ADS-B
Fri 11:10:09 PM 42.4570 -93.2930 91° East 447 514 35,000  Level FlightAware ADS-B
Fri 11:10:17 PM 42.4570 -93.2720 90° East 448 516 35,000  Level FlightAware ADS-B
Fri 11:12:05 PM 42.4550 -93.0520 91° East 453 521 35,000  Level FlightAware ADS-B
Fri 11:12:49 PM 42.4520 -92.8460 91° East 453 521 35,000  Level FlightAware ADS-B
Fri 11:13:29 PM 42.4500 -92.7340 91° East 455 524 35,000  Level FlightAware ADS-B
Fri 11:14:13 PM 42.4480 -92.6040 91° East 455 524 35,000 70 Level FlightAware ADS-B
Fri 11:14:55 PM 42.4460 -92.4900 91° East 452 520 35,100  Climbing FlightAware ADS-B
Fri 11:15:37 PM 42.4440 -92.3690 91° East 450 518 35,000 -73 Descending FlightAware ADS-B
Fri 11:16:17 PM 42.4420 -92.2590 91° East 446 513 35,000  Level FlightAware ADS-B
Fri 11:17:01 PM 42.4400 -92.1320 91° East 447 514 35,000  Level FlightAware ADS-B
Fri 11:17:41 PM 42.4370 -92.0220 92° East 450 518 35,000  Level FlightAware ADS-B
Fri 11:18:23 PM 42.4350 -91.9030 91° East 455 524 35,000  Level FlightAware ADS-B
Fri 11:19:08 PM 42.4320 -91.7790 92° East 457 526 35,000  Level FlightAware ADS-B
Fri 11:19:47 PM 42.4290 -91.6630 92° East 461 531 35,000  Level FlightAware ADS-B
Fri 11:20:27 PM 42.4260 -91.5490 92° East 465 535 35,000  Level FlightAware ADS-B
Fri 11:21:11 PM 42.4230 -91.4220 92° East 472 543 35,000  Level FlightAware ADS-B
Fri 11:21:55 PM 42.4190 -91.2900 92° East 476 548 35,000  Level FlightAware ADS-B
Fri 11:22:33 PM 42.4160 -91.1740 92° East 477 549 35,000  Level FlightAware ADS-B
Fri 11:23:17 PM 42.4120 -91.0450 92° East 480 552 35,000  Level FlightAware ADS-B
Fri 11:24:01 PM 42.4080 -90.9110 92° East 487 560 35,000  Level FlightAware ADS-B
Fri 11:24:42 PM 42.4040 -90.7910 93° East 486 559 35,000  Level FlightAware ADS-B
Fri 11:25:22 PM 42.4060 -90.6690 89° East 482 555 35,000 -929 Level FlightAware ADS-B
Fri 11:26:06 PM 42.4190 -90.5390 82° East 483 556 33,700 -2,045 Descending FlightAware ADS-B
Fri 11:26:50 PM 42.4330 -90.4100 82° East 479 551 32,000 -2,348 Descending FlightAware ADS-B
Fri 11:27:15 PM 42.4410 -90.3300 82° East 477 549 31,000 -2,328 Descending FlightAware ADS-B
Fri 11:27:57 PM 42.4530 -90.2100 82° East 473 544 29,400 -2,207 Descending FlightAware ADS-B
Fri 11:28:42 PM 42.4660 -90.0810 82° East 466 536 27,800 -2,118 Descending FlightAware ADS-B
Fri 11:29:22 PM 42.4760 -89.9610 84° East 462 532 26,400 -2,250 Descending FlightAware ADS-B
Fri 11:30:02 PM 42.4700 -89.8490 94° East 464 534 24,800 -2,000 Descending FlightAware ADS-B
Fri 11:30:58 PM 42.4610 -89.7160 95° East 444 511 23,200 -2,000 Descending FlightAware ADS-B
Fri 11:31:41 PM 42.4520 -89.5780 95° East 422 486 21,500 -2,276 Descending FlightAware ADS-B
Fri 11:32:25 PM 42.4440 -89.4590 95° East 412 474 19,900 -2,000 Descending FlightAware ADS-B
Fri 11:33:05 PM 42.4370 -89.3590 95° East 399 459 18,700 -1,950 Descending FlightAware ADS-B
Fri 11:33:45 PM 42.4300 -89.2580 95° East 400 460 17,300 -2,023 Descending FlightAware ADS-B
Fri 11:34:31 PM 42.4220 -89.1440 95° East 396 456 15,800 -1,884 Descending FlightAware ADS-B
Fri 11:35:11 PM 42.4150 -89.0460 95° East 387 445 14,600 -1,765 Descending FlightAware ADS-B
Fri 11:35:56 PM 42.4070 -88.9410 96° East 376 433 13,300 -1,694 Descending FlightAware ADS-B
Fri 11:36:36 PM 42.4010 -88.8470 95° East 366 421 12,200 -1,735 Descending FlightAware ADS-B
Fri 11:37:19 PM 42.3940 -88.7510 96° East 356 410 10,900 -1,590 Descending FlightAware ADS-B
Fri 11:37:59 PM 42.3870 -88.6630 96° East 342 394 10,000 -1,147 Descending FlightAware ADS-B
Fri 11:38:27 PM 42.3830 -88.6050 95° East 319 367 9,600 -842 Descending FlightAware ADS-B
Fri 11:38:56 PM 42.3790 -88.5510 96° East 302 348 9,200 -1,000 Descending FlightAware ADS-B
Fri 11:39:21 PM 42.3750 -88.5050 97° East 294 338 8,700 -878 Descending FlightAware ADS-B
Fri 11:39:37 PM 42.3690 -88.4770 106° East 284 327 8,600 -533 Descending FlightAware ADS-B
Fri 11:40:06 PM 42.3550 -88.4310 112° Southeast 263 303 8,300 -545 Descending FlightAware ADS-B
Fri 11:40:21 PM 42.3480 -88.4090 113° Southeast 255 293 8,200 -982 Descending FlightAware ADS-B
Fri 11:41:01 PM 42.3150 -88.3710 140° Southeast 242 278 7,400 -1,217 Descending FlightAware ADS-B
Fri 11:41:30 PM 42.2830 -88.3680 176° South 237 273 6,800 -842 Descending FlightAware ADS-B
Fri 11:41:58 PM 42.2530 -88.3650 176° South 236 272 6,600 -293 Descending FlightAware ADS-B
Fri 11:42:11 PM 42.2370 -88.3630 175° South 239 275 6,600  Level FlightAware ADS-B
Fri 11:42:37 PM 42.2080 -88.3590 174° South 238 274 6,600  Level FlightAware ADS-B
Fri 11:43:07 PM 42.1760 -88.3560 176° South 237 273 6,600  Level FlightAware ADS-B
Fri 11:43:36 PM 42.1450 -88.3520 175° South 238 274 6,600 -107 Level FlightAware ADS-B
Fri 11:44:03 PM 42.1150 -88.3490 176° South 235 270 6,500 -737 Descending FlightAware ADS-B
Fri 11:44:33 PM 42.0820 -88.3440 174° South 236 272 5,900 -1,263 Descending FlightAware ADS-B
Fri 11:45:00 PM 42.0560 -88.3280 155° Southeast 234 269 5,300 -1,286 Descending FlightAware ADS-B
Fri 11:45:29 PM 42.0280 -88.3110 156° South 232 267 4,700 -1,263 Descending FlightAware ADS-B
Fri 11:45:57 PM 42.0030 -88.2900 148° Southeast 232 267 4,100 -1,179 Descending FlightAware ADS-B
Fri 11:46:25 PM 41.9880 -88.2540 119° Southeast 232 267 3,600 -545 Descending FlightAware ADS-B
Fri 11:46:52 PM 41.9750 -88.2190 117° Southeast 236 272 3,600  Level FlightAware ADS-B
Fri 11:47:05 PM 41.9700 -88.2000 109° East 234 269 3,600  Level FlightAware ADS-B
Fri 11:47:22 PM 41.9680 -88.1750 96° East 232 267 3,600 -632 Level FlightAware ADS-B
Fri 11:48:02 PM 41.9680 -88.1200 90° East 221 254 3,000 -1,075 Descending FlightAware ADS-B
Fri 11:48:29 PM 41.9690 -88.0840 88° East 210 242 2,400 -1,029 Descending FlightAware ADS-B
Fri 11:49:12 PM 41.9690 -88.0340 90° East 178 205 1,800 -917 Descending FlightAware ADS-B
Fri 11:49:41 PM 41.9690 -88.0030 90° East 148 170 1,300 -977 Descending FlightAware ADS-B
Fri 11:49:55 PM 41.9690 -87.9910 90° East 134 154 1,100 -679 Descending FlightAware ADS-B
Fri 11:50:34 PM 41.9690 -87.9600 90° East 134 154 700 -590 Descending FlightAware ADS-B
Fri 11:50:56 PM 41.9690 -87.9430 90° East 134 154 500 -545 Descending FlightAware ADS-B
Fri 11:51:24 PM 41.9690 -87.9180 90° East 115 132 -1,071 Descending FlightAware ADS-B
Fri 11:52:16 PM 41.9700 -87.9020 85° East 17 20  Level FlightAware ADS-B
Fri 11:52:23 PM 41.9710 -87.9010 37° Northeast 15 17  Level FlightAware ADS-B
Fri 11:52:43 PM 41.9710 -87.9000 90° East 32 37  Level FlightAware ADS-B
Fri 11:53:09 PM 41.9720 -87.8980 56° Northeast 27 31  Level FlightAware ADS-B
Fri 11:53:37 PM 41.9720 -87.8960 90° East 26 30  Level FlightAware ADS-B
Fri 11:53:58 PM 41.9730 -87.8950 37° Northeast 28 32  Level FlightAware ADS-B
Fri 11:54:34 PM 41.9750 -87.8920 48° Northeast 29 33  Level FlightAware ADS-B
Fri 11:56:00 PM 41.9770 -87.8940 323° Northwest 17 20  Level FlightAware ADS-B
Fri 11:56:24 PM 41.9780 -87.8950 323° Northwest 19 22  Level FlightAware ADS-B
Fri 11:56:56 PM 41.9780 -87.8960 270° West 21 24  Level FlightAware ADS-B
Fri 11:59:00 PM 41.9667 -87.9000 143° Southeast  Level FlightAware Approximate

Login

Don't have an account? Register now (free) for customized features, flight alerts, and more!